Time;durP1;ratioP1;P1;durP2;ratioP2;P2;SDS_P1;SDS_P2;PMS_P1;PMS_P2;Temp;Humidity;BMP_temperature;BMP_pressure;BME280_temperature;BME280_humidity;BME280_pressure;Samples;Min_cycle;Max_cycle;Signal;HPM_P1;HPM_P2
2022/04/10 00:01:40;;;;;;;12.03;5.65;;;;;;;13.94;59.74;100357.98;1779321;81;21015;-64
2022/04/10 00:04:07;;;;;;;17.75;6.83;;;;;;;13.97;59.72;100344.78;1779385;81;21027;-64
2022/04/10 00:06:34;;;;;;;9.55;5.80;;;;;;;14.03;59.61;100349.77;1779460;81;21074;-64
2022/04/10 00:09:01;;;;;;;9.20;5.62;;;;;;;14.06;59.45;100374.92;1779455;81;21062;-65
2022/04/10 00:11:29;;;;;;;11.75;5.65;;;;;;;14.07;59.41;100372.27;1779061;81;21023;-65
2022/04/10 00:13:56;;;;;;;14.25;6.53;;;;;;;14.11;59.36;100346.81;1779658;81;21034;-65
2022/04/10 00:16:23;;;;;;;21.82;8.03;;;;;;;14.14;59.13;100330.51;1755448;80;21010;-64
2022/04/10 00:18:51;;;;;;;26.80;9.05;;;;;;;14.16;58.83;100327.37;1779224;81;21014;-64
2022/04/10 00:21:18;;;;;;;23.57;8.70;;;;;;;14.19;58.75;100329.87;1779194;81;21023;-64
2022/04/10 00:23:45;;;;;;;29.12;9.50;;;;;;;14.21;58.68;100335.89;1779173;81;21046;-64
2022/04/10 00:26:14;;;;;;;22.30;8.23;;;;;;;14.22;58.67;100340.19;1758313;80;21023;-65
2022/04/10 00:28:42;;;;;;;22.37;9.00;;;;;;;14.22;58.37;100328.41;1779405;81;21468;-64
2022/04/10 00:31:09;;;;;;;25.27;8.60;;;;;;;14.23;58.38;100315.73;1779381;80;21078;-64
2022/04/10 00:33:38;;;;;;;31.02;9.98;;;;;;;14.24;58.18;100321.34;1779068;81;21089;-64
2022/04/10 00:36:05;;;;;;;20.55;7.83;;;;;;;14.25;58.29;100323.52;1779124;81;21070;-65
2022/04/10 00:38:32;;;;;;;12.28;6.12;;;;;;;14.25;58.20;100316.52;1779764;81;20971;-64
2022/04/10 00:40:59;;;;;;;12.18;6.05;;;;;;;14.24;58.29;100312.19;1779114;81;21050;-64
2022/04/10 00:43:32;;;;;;;16.45;6.60;;;;;;;14.23;58.29;100319.66;1779055;81;20975;-64
2022/04/10 00:45:57;;;;;;;17.80;6.80;;;;;;;14.21;58.42;100321.50;1776084;81;21054;-64
2022/04/10 00:48:24;;;;;;;18.30;6.72;;;;;;;14.21;58.41;100317.56;1779264;81;21003;-65
2022/04/10 00:53:38;;;;;;;13.05;5.97;;;;;;;14.21;58.30;100322.80;1779001;79;21553;-65
2022/04/10 00:56:05;;;;;;;15.63;5.95;;;;;;;14.20;58.28;100317.64;1757007;81;21019;-65
2022/04/10 00:58:32;;;;;;;13.58;6.92;;;;;;;14.17;58.31;100306.84;1779429;79;21026;-65
2022/04/10 01:01:00;;;;;;;15.60;6.12;;;;;;;14.16;58.50;100305.13;1778951;81;21007;-65
2022/04/10 01:03:27;;;;;;;16.20;6.60;;;;;;;14.15;58.55;100304.75;1779433;81;21015;-65
2022/04/10 01:05:54;;;;;;;17.77;6.50;;;;;;;14.14;58.66;100312.20;1779154;81;21050;-65
2022/04/10 01:08:23;;;;;;;11.68;5.78;;;;;;;14.13;58.66;100307.90;1758317;81;21038;-65
2022/04/10 01:10:51;;;;;;;15.08;6.33;;;;;;;14.13;58.54;100322.28;1779435;79;20994;-64
2022/04/10 01:13:20;;;;;;;15.60;6.42;;;;;;;14.12;58.57;100327.11;1779336;80;20991;-65
2022/04/10 01:15:47;;;;;;;12.53;6.17;;;;;;;14.10;58.60;100335.48;1772185;81;20995;-64
2022/04/10 01:18:16;;;;;;;16.25;6.28;;;;;;;14.09;58.54;100335.11;1779271;81;21015;-64
2022/04/10 01:20:45;;;;;;;18.20;6.58;;;;;;;14.08;58.42;100337.31;1758028;81;20995;-64
2022/04/10 01:23:12;;;;;;;13.78;6.42;;;;;;;14.08;58.48;100336.45;1778360;79;21030;-64
2022/04/10 01:25:42;;;;;;;12.65;6.00;;;;;;;14.05;58.40;100325.69;1779079;81;20991;-65
2022/04/10 01:28:13;;;;;;;16.30;6.37;;;;;;;14.05;58.49;100330.92;1779469;81;21479;-64
2022/04/10 01:30:43;;;;;;;13.80;6.58;;;;;;;14.03;58.48;100320.98;1773302;81;21030;-64
2022/04/10 01:33:10;;;;;;;19.27;6.80;;;;;;;14.02;58.55;100325.80;1756972;80;21082;-65
2022/04/10 01:35:37;;;;;;;13.98;6.00;;;;;;;14.01;58.64;100326.73;1750280;82;21057;-64
2022/04/10 01:38:05;;;;;;;13.48;6.17;;;;;;;14.00;58.60;100321.09;1750414;82;20991;-64
2022/04/10 01:40:34;;;;;;;12.58;6.15;;;;;;;13.98;58.58;100332.09;1745921;82;21010;-65
2022/04/10 01:43:02;;;;;;;15.55;6.78;;;;;;;13.97;58.50;100333.02;1749860;82;21024;-65
2022/04/10 01:45:31;;;;;;;15.58;6.60;;;;;;;13.96;58.49;100336.53;1749820;82;20971;-65
2022/04/10 01:47:59;;;;;;;20.08;8.28;;;;;;;13.95;58.41;100336.13;1749868;81;21011;-65
2022/04/10 01:50:26;;;;;;;21.40;7.65;;;;;;;13.93;58.54;100331.41;1750251;82;21081;-65
2022/04/10 01:52:55;;;;;;;15.93;7.42;;;;;;;13.92;58.51;100336.27;1750164;82;20999;-65
2022/04/10 01:55:24;;;;;;;19.35;6.92;;;;;;;13.91;58.47;100342.40;1750354;82;21039;-65
2022/04/10 01:57:51;;;;;;;28.47;8.85;;;;;;;13.89;58.52;100339.00;1750878;82;20984;-65
2022/04/10 02:00:18;;;;;;;25.02;9.33;;;;;;;13.88;58.51;100344.70;1749352;82;21054;-65
2022/04/10 02:02:45;;;;;;;29.95;9.03;;;;;;;13.88;58.49;100339.92;1752595;81;21514;-65
2022/04/10 02:05:12;;;;;;;22.95;7.87;;;;;;;13.86;58.44;100341.76;1749916;81;21034;-64
2022/04/10 02:07:39;;;;;;;19.80;8.65;;;;;;;13.85;58.33;100342.66;1750420;82;21509;-65
2022/04/10 02:10:08;;;;;;;20.60;7.33;;;;;;;13.84;58.21;100362.75;1746924;82;21075;-65
2022/04/10 02:12:35;;;;;;;23.35;8.43;;;;;;;13.82;58.16;100365.03;1749308;82;21027;-65
2022/04/10 02:15:05;;;;;;;15.18;7.50;;;;;;;13.83;58.12;100371.94;1749956;81;21519;-64
2022/04/10 02:17:33;;;;;;;17.75;7.72;;;;;;;13.80;58.17;100374.25;1750034;82;21566;-65
2022/04/10 02:20:01;;;;;;;16.50;7.30;;;;;;;13.77;58.10;100370.89;1706625;83;20993;-64
2022/04/10 02:22:28;;;;;;;18.02;7.12;;;;;;;13.76;58.18;100375.30;1746289;82;21535;-65
2022/04/10 02:24:58;;;;;;;16.67;6.87;;;;;;;13.75;58.13;100374.02;1750255;82;21535;-65
2022/04/10 02:27:25;;;;;;;25.43;8.18;;;;;;;13.73;58.18;100374.55;1750677;82;21023;-65
2022/04/10 02:29:52;;;;;;;19.27;7.87;;;;;;;13.71;58.16;100371.14;1738030;82;21511;-64
2022/04/10 02:32:19;;;;;;;17.55;7.20;;;;;;;13.67;58.13;100365.19;1758212;80;21062;-65
2022/04/10 02:34:46;;;;;;;23.95;7.60;;;;;;;13.65;58.01;100366.16;1779263;79;21023;-64
2022/04/10 02:37:14;;;;;;;20.35;8.40;;;;;;;13.63;57.89;100370.59;1758433;80;21065;-65
2022/04/10 02:39:41;;;;;;;20.82;7.90;;;;;;;13.60;58.02;100366.34;1779455;81;21538;-65
2022/04/10 02:42:08;;;;;;;23.55;8.75;;;;;;;13.58;58.10;100372.56;1779544;81;20987;-64
2022/04/10 02:44:35;;;;;;;19.80;8.40;;;;;;;13.57;57.84;100363.00;1779230;81;21027;-65
2022/04/10 02:47:04;;;;;;;20.30;8.13;;;;;;;13.54;57.89;100365.76;1779514;81;21499;-64
2022/04/10 02:49:31;;;;;;;16.87;7.92;;;;;;;13.51;57.98;100370.64;1773289;81;21039;-65
2022/04/10 02:51:59;;;;;;;24.37;7.67;;;;;;;13.50;58.06;100378.08;1779309;79;20986;-65
2022/04/10 02:54:26;;;;;;;25.62;7.95;;;;;;;13.52;57.92;100378.00;1779208;79;21050;-65
2022/04/10 02:56:54;;;;;;;17.07;7.95;;;;;;;13.50;57.78;100376.77;1779509;79;21078;-65
2022/04/10 02:59:22;;;;;;;18.40;6.62;;;;;;;13.48;57.95;100376.42;1779286;81;21035;-65
2022/04/10 03:01:50;;;;;;;22.35;7.55;;;;;;;13.45;57.96;100388.33;1779288;81;21027;-65
2022/04/10 03:04:18;;;;;;;17.25;8.10;;;;;;;13.40;57.81;100396.34;1779485;81;21023;-64
2022/04/10 03:06:46;;;;;;;24.70;8.20;;;;;;;13.39;57.45;100401.19;1779179;81;21564;-64
2022/04/10 03:09:15;;;;;;;23.60;8.03;;;;;;;13.37;57.32;100400.84;1758749;80;21034;-65
2022/04/10 03:11:43;;;;;;;39.18;12.95;;;;;;;13.34;57.33;100403.11;1779414;79;20999;-65
2022/04/10 03:14:10;;;;;;;49.05;12.07;;;;;;;13.33;57.41;100409.72;1779647;81;21078;-65
2022/04/10 03:16:39;;;;;;;36.77;10.10;;;;;;;13.32;57.46;100407.99;1779207;81;21070;-65
2022/04/10 03:19:06;;;;;;;31.57;9.25;;;;;;;13.31;57.48;100410.23;1779218;81;21022;-64
2022/04/10 03:21:32;;;;;;;21.73;8.08;;;;;;;13.31;57.33;100410.23;1779214;81;21062;-65
2022/04/10 03:24:02;;;;;;;20.60;8.30;;;;;;;13.28;57.28;100416.41;1779164;81;21549;-64
2022/04/10 03:26:29;;;;;;;31.45;10.08;;;;;;;13.27;57.29;100416.48;1779671;81;21039;-65
2022/04/10 03:28:57;;;;;;;26.05;10.30;;;;;;;13.26;57.57;100418.23;1779550;81;21026;-65
2022/04/10 03:31:25;;;;;;;29.10;9.43;;;;;;;13.23;57.52;100420.12;1774287;81;21020;-65
2022/04/10 03:33:54;;;;;;;26.37;8.65;;;;;;;13.22;57.66;100421.02;1754117;80;21043;-65
2022/04/10 03:36:21;;;;;;;22.90;8.43;;;;;;;13.21;57.63;100421.94;1709695;84;21101;-64
2022/04/10 03:38:48;;;;;;;18.87;7.55;;;;;;;13.21;57.53;100424.55;1709653;83;21022;-65
2022/04/10 03:41:15;;;;;;;19.42;7.95;;;;;;;13.21;57.41;100428.47;1682510;84;21044;-65
2022/04/10 03:43:42;;;;;;;21.42;7.45;;;;;;;13.21;57.48;100425.38;1710983;84;21498;-65
2022/04/10 03:46:09;;;;;;;22.82;7.75;;;;;;;13.22;57.55;100434.08;1703766;84;21034;-65
2022/04/10 03:48:38;;;;;;;17.27;7.37;;;;;;;13.22;57.59;100436.69;1699709;84;21087;-65
2022/04/10 03:51:05;;;;;;;16.62;7.10;;;;;;;13.24;57.58;100440.09;1694223;84;21074;-65
2022/04/10 03:53:34;;;;;;;20.55;8.30;;;;;;;13.26;57.78;100443.50;1703454;84;21534;-66
2022/04/10 03:56:01;;;;;;;17.65;7.60;;;;;;;13.28;57.68;100441.23;1708555;84;21503;-65
2022/04/10 03:58:49;;;;;;;20.20;8.75;;;;;;;13.29;57.48;100435.56;1574674;89;21284;-65
2022/04/10 04:01:18;;;;;;;21.62;7.97;;;;;;;13.30;57.49;100439.42;1587862;89;21073;-65
2022/04/10 04:03:45;;;;;;;19.15;7.53;;;;;;;13.32;57.51;100447.19;1609737;89;21066;-65
2022/04/10 04:06:12;;;;;;;17.57;7.22;;;;;;;13.35;57.55;100440.55;1609494;89;21586;-65
2022/04/10 04:08:41;;;;;;;17.82;7.47;;;;;;;13.37;57.60;100432.20;1609883;89;21082;-65
2022/04/10 04:11:09;;;;;;;22.27;8.75;;;;;;;13.39;57.59;100431.69;1609491;89;21598;-65
2022/04/10 04:13:40;;;;;;;17.25;7.45;;;;;;;13.41;57.66;100435.95;1609673;89;21090;-65
2022/04/10 04:16:08;;;;;;;12.60;6.75;;;;;;;13.43;58.14;100443.28;1588613;89;21110;-65
2022/04/10 04:18:36;;;;;;;16.23;6.60;;;;;;;13.44;58.73;100444.11;1609609;89;21109;-65
2022/04/10 04:21:06;;;;;;;9.88;6.22;;;;;;;13.41;59.37;100439.88;1609656;89;21090;-65
2022/04/10 04:23:34;;;;;;;14.83;6.85;;;;;;;13.40;60.04;100443.83;1635772;86;21097;-65
2022/04/10 04:26:03;;;;;;;10.10;6.00;;;;;;;13.41;60.68;100437.70;1670397;86;21057;-65
2022/04/10 04:28:32;;;;;;;11.53;6.45;;;;;;;13.44;61.38;100440.19;1670152;86;21093;-65
2022/04/10 04:30:59;;;;;;;13.45;6.33;;;;;;;13.47;61.95;100444.00;1670417;86;21061;-64
2022/04/10 04:33:27;;;;;;;7.60;3.65;;;;;;;13.52;62.59;100449.89;1670312;86;21090;-65
2022/04/10 04:35:54;;;;;;;3.25;2.40;;;;;;;13.59;63.46;100452.67;1664340;86;21026;-66
2022/04/10 04:38:22;;;;;;;2.65;2.12;;;;;;;13.69;63.96;100457.94;1670653;86;21124;-64
2022/04/10 04:40:50;;;;;;;4.78;2.33;;;;;;;13.80;64.42;100455.77;1670060;86;21045;-65
2022/04/10 04:43:17;;;;;;;4.35;2.22;;;;;;;13.93;64.72;100453.52;1670553;86;21073;-65
2022/04/10 04:45:44;;;;;;;3.08;2.00;;;;;;;14.03;64.78;100449.17;1670399;86;21526;-65
2022/04/10 04:48:13;;;;;;;4.22;2.55;;;;;;;14.12;65.02;100442.23;1670467;86;21530;-64
2022/04/10 04:50:47;;;;;;;3.72;2.12;;;;;;;14.21;65.03;100444.48;1670152;86;21034;-65
2022/04/10 04:53:15;;;;;;;3.85;2.25;;;;;;;14.29;64.92;100446.36;1666662;86;21034;-65
2022/04/10 04:55:43;;;;;;;2.67;2.05;;;;;;;14.36;65.02;100453.02;1670428;86;21498;-65
2022/04/10 04:58:11;;;;;;;2.33;2.00;;;;;;;14.43;65.12;100445.77;1673827;85;21034;-64
2022/04/10 05:00:39;;;;;;;2.50;1.92;;;;;;;14.49;65.04;100441.13;1675547;85;21077;-65
2022/04/10 05:03:06;;;;;;;3.12;2.20;;;;;;;14.53;65.08;100437.46;1675569;86;21498;-64
2022/04/10 05:05:34;;;;;;;3.42;2.05;;;;;;;14.56;64.92;100439.96;1675579;85;21037;-65
2022/04/10 05:08:07;;;;;;;4.03;2.12;;;;;;;14.61;64.79;100432.74;1671886;86;21085;-64
2022/04/10 05:10:34;;;;;;;2.92;1.87;;;;;;;14.66;64.92;100439.95;1675635;85;21562;-65
2022/04/10 05:13:07;;;;;;;3.87;2.00;;;;;;;14.72;64.87;100439.28;1675506;86;21046;-63
2022/04/10 05:15:35;;;;;;;3.08;2.10;;;;;;;14.76;64.78;100443.47;1628211;86;21037;-65
2022/04/10 05:18:02;;;;;;;2.55;1.80;;;;;;;14.81;64.74;100438.89;1675855;85;21069;-65
2022/04/10 05:20:33;;;;;;;3.05;1.80;;;;;;;14.86;64.55;100434.31;1675933;86;21033;-65
2022/04/10 05:23:04;;;;;;;3.02;2.02;;;;;;;14.91;64.43;100427.95;1672613;86;21040;-65
2022/04/10 05:25:36;;;;;;;4.65;1.80;;;;;;;14.97;64.20;100427.66;1675587;86;21030;-65
2022/04/10 05:28:04;;;;;;;4.15;2.10;;;;;;;15.00;63.99;100431.92;1676025;85;20998;-64
2022/04/10 05:30:31;;;;;;;4.03;1.98;;;;;;;15.04;63.86;100436.11;1675808;86;21054;-64
2022/04/10 05:33:00;;;;;;;2.40;1.77;;;;;;;15.07;63.78;100432.02;1675881;85;21033;-64
2022/04/10 05:35:27;;;;;;;2.45;1.95;;;;;;;15.11;63.69;100437.52;1675587;86;21026;-65
2022/04/10 05:37:54;;;;;;;2.47;1.95;;;;;;;15.16;63.63;100440.80;1675813;85;21081;-65
2022/04/10 05:40:22;;;;;;;3.08;1.87;;;;;;;15.20;63.61;100440.59;1675625;86;21049;-65
2022/04/10 05:42:49;;;;;;;3.45;2.10;;;;;;;15.26;63.62;100442.07;1675884;85;21066;-63
2022/04/10 05:45:17;;;;;;;2.58;1.72;;;;;;;15.29;63.44;100437.53;1675629;86;21081;-65
2022/04/10 05:47:46;;;;;;;3.50;2.00;;;;;;;15.36;63.43;100438.10;1666828;85;21036;-65
2022/04/10 05:50:13;;;;;;;3.05;1.60;;;;;;;15.43;63.40;100435.64;1676090;86;21049;-65
2022/04/10 05:52:44;;;;;;;3.02;1.27;;;;;;;15.57;63.53;100430.59;1675834;86;21549;-62
2022/04/10 05:55:13;;;;;;;2.17;1.40;;;;;;;15.84;63.05;100433.22;1675882;85;21014;-63
2022/04/10 05:57:41;;;;;;;1.70;1.30;;;;;;;16.16;62.13;100432.48;1671073;85;21062;-64
2022/04/10 06:00:10;;;;;;;2.87;1.47;;;;;;;16.45;61.16;100424.91;1662789;86;21081;-64
2022/04/10 06:02:41;;;;;;;1.42;1.30;;;;;;;16.69;60.38;100435.03;1659778;86;21050;-65
2022/04/10 06:05:09;;;;;;;1.42;1.20;;;;;;;17.00;59.93;100432.51;1663365;86;21014;-64
2022/04/10 06:07:37;;;;;;;2.67;1.70;;;;;;;17.33;59.10;100431.65;1660987;86;21043;-64
2022/04/10 06:10:07;;;;;;;1.67;1.22;;;;;;;17.70;58.22;100437.44;1663051;86;21577;-63
2022/04/10 06:12:35;;;;;;;1.67;1.37;;;;;;;18.12;57.14;100438.58;1663014;86;21550;-63
2022/04/10 06:15:04;;;;;;;1.87;1.32;;;;;;;18.52;56.01;100438.85;1660745;86;21038;-63
2022/04/10 06:17:32;;;;;;;2.17;1.50;;;;;;;18.91;54.89;100435.61;1663446;86;21054;-63
2022/04/10 06:19:59;;;;;;;1.65;1.30;;;;;;;19.24;53.65;100445.41;1662839;86;21062;-63
2022/04/10 06:22:28;;;;;;;2.02;1.47;;;;;;;19.41;52.87;100442.57;1663087;86;21470;-64
2022/04/10 06:24:55;;;;;;;1.92;1.47;;;;;;;19.54;52.33;100452.38;1657408;85;21047;-63
2022/04/10 06:27:23;;;;;;;3.55;1.60;;;;;;;19.62;51.99;100451.42;1663026;86;21057;-65
2022/04/10 06:29:50;;;;;;;2.95;1.70;;;;;;;19.74;52.03;100453.27;1663107;86;21551;-64
2022/04/10 06:32:17;;;;;;;2.12;1.40;;;;;;;19.93;51.30;100447.16;1662805;86;21119;-65
2022/04/10 06:34:46;;;;;;;2.42;1.67;;;;;;;20.12;50.61;100448.98;1662851;86;21038;-63
2022/04/10 06:37:14;;;;;;;2.22;1.57;;;;;;;20.28;50.15;100449.69;1662744;86;21058;-65
2022/04/10 06:39:41;;;;;;;3.47;1.85;;;;;;;20.39;49.63;100449.84;1662831;86;21094;-64
2022/04/10 06:42:09;;;;;;;2.67;1.80;;;;;;;20.42;49.46;100437.75;1662875;86;21007;-64
2022/04/10 06:44:56;;;;;;;2.67;1.92;;;;;;;20.44;49.32;100438.50;1660384;86;21057;-65
2022/04/10 06:47:41;;;;;;;3.12;1.77;;;;;;;20.47;48.68;100444.88;1663268;86;21045;-64
2022/04/10 06:50:09;;;;;;;2.95;2.45;;;;;;;20.36;48.51;100444.73;1662803;86;21422;-65
2022/04/10 06:52:36;;;;;;;2.80;1.98;;;;;;;20.23;48.79;100445.20;1662811;86;21058;-65
2022/04/10 06:55:05;;;;;;;2.20;2.00;;;;;;;20.07;48.71;100453.73;1663015;86;21078;-64
2022/04/10 06:57:32;;;;;;;2.92;2.08;;;;;;;19.91;49.00;100455.66;1632778;86;21125;-64
2022/04/10 07:00:01;;;;;;;3.42;2.27;;;;;;;19.75;49.36;100460.23;1672042;86;21077;-65
2022/04/10 07:02:29;;;;;;;3.50;2.12;;;;;;;19.65;49.66;100459.12;1672113;85;21521;-64
2022/04/10 07:04:57;;;;;;;2.87;2.30;;;;;;;19.61;49.82;100453.67;1666437;86;20986;-64
2022/04/10 07:07:25;;;;;;;2.45;2.15;;;;;;;19.61;50.18;100457.63;1672243;85;21493;-64
2022/04/10 07:09:51;;;;;;;3.30;2.30;;;;;;;19.68;50.25;100458.95;1672853;86;21033;-64
2022/04/10 07:12:18;;;;;;;3.67;2.30;;;;;;;19.74;49.70;100457.23;1672235;86;21038;-64
2022/04/10 07:14:47;;;;;;;3.77;2.37;;;;;;;19.77;49.66;100459.66;1672240;85;21038;-63
2022/04/10 07:17:14;;;;;;;3.00;2.30;;;;;;;19.82;49.52;100462.41;1666218;86;21010;-64
2022/04/10 07:19:45;;;;;;;2.72;2.52;;;;;;;19.91;49.64;100460.47;1672149;86;21081;-64
2022/04/10 07:24:59;;;;;;;3.20;2.25;;;;;;;20.17;48.88;100452.18;1672027;86;21549;-64
2022/04/10 07:27:26;;;;;;;4.87;2.35;;;;;;;20.29;48.84;100455.36;1672357;85;21533;-63
2022/04/10 07:29:56;;;;;;;3.87;2.17;;;;;;;20.35;48.46;100450.98;1670019;86;21509;-62
2022/04/10 07:32:25;;;;;;;5.08;2.50;;;;;;;20.40;48.46;100455.51;1667964;86;21537;-62
2022/04/10 07:34:54;;;;;;;5.00;2.90;;;;;;;20.42;47.92;100456.25;1668155;85;21113;-64
2022/04/10 07:37:26;;;;;;;4.70;2.67;;;;;;;20.45;47.00;100457.35;1583853;90;21070;-63
2022/04/10 07:39:56;;;;;;;5.92;3.30;;;;;;;20.45;46.36;100457.35;1583916;90;21103;-64
2022/04/10 07:42:26;;;;;;;6.10;4.05;;;;;;;20.35;46.16;100457.59;1584139;89;21082;-63
2022/04/10 07:44:56;;;;;;;6.22;3.92;;;;;;;20.23;45.94;100457.09;1584106;90;21133;-63
2022/04/10 07:47:26;;;;;;;5.67;4.03;;;;;;;20.08;46.22;100456.27;1563282;91;21076;-63
2022/04/10 07:49:54;;;;;;;6.70;4.53;;;;;;;20.01;46.60;100455.46;1564321;90;21149;-64
2022/04/10 07:52:21;;;;;;;8.48;5.67;;;;;;;20.02;46.35;100455.81;1584146;89;21633;-63
2022/04/10 07:54:52;;;;;;;6.40;4.37;;;;;;;20.05;46.36;100458.27;1524119;92;21102;-63
2022/04/10 07:57:19;;;;;;;8.50;4.58;;;;;;;20.09;46.40;100459.77;1491621;94;21156;-64
2022/04/10 07:59:48;;;;;;;7.97;5.00;;;;;;;20.09;46.35;100465.05;1496643;94;21138;-64
2022/04/10 08:02:17;;;;;;;6.72;4.70;;;;;;;20.09;46.02;100466.37;1497385;94;21090;-63
2022/04/10 08:04:44;;;;;;;8.25;4.53;;;;;;;19.99;45.94;100458.17;1525914;93;21159;-64
2022/04/10 08:07:20;;;;;;;10.13;5.85;;;;;;;19.89;46.24;100457.55;1445622;98;21143;-64
2022/04/10 08:09:47;;;;;;;11.22;6.60;;;;;;;19.86;46.40;100465.69;1445758;99;21124;-64
2022/04/10 08:12:16;;;;;;;12.35;6.55;;;;;;;19.83;46.40;100469.36;1445751;98;21657;-64
2022/04/10 08:14:44;;;;;;;12.05;6.40;;;;;;;19.86;46.16;100481.53;1456767;97;21048;-64
2022/04/10 08:17:12;;;;;;;10.38;6.17;;;;;;;19.88;46.07;100478.31;1467916;97;21124;-64
2022/04/10 08:19:40;;;;;;;7.55;5.53;;;;;;;19.85;46.04;100462.66;1467541;98;21051;-64
2022/04/10 08:22:07;;;;;;;8.50;5.12;;;;;;;19.80;46.54;100455.52;1467556;98;21075;-63
2022/04/10 08:24:34;;;;;;;8.00;4.85;;;;;;;19.76;46.35;100463.27;1467644;97;21138;-64
2022/04/10 08:27:03;;;;;;;7.33;4.83;;;;;;;19.64;46.55;100471.97;1467629;97;21612;-63
2022/04/10 08:29:31;;;;;;;8.83;5.53;;;;;;;19.54;46.82;100470.86;1467905;97;21563;-64
2022/04/10 08:31:58;;;;;;;12.88;5.40;;;;;;;19.44;47.22;100468.78;1494702;93;21078;-64
2022/04/10 08:34:25;;;;;;;8.98;5.67;;;;;;;19.39;47.37;100466.89;1547564;93;21118;-63
2022/04/10 08:36:51;;;;;;;14.38;6.03;;;;;;;19.37;47.44;100467.45;1547629;93;21285;-64
2022/04/10 08:39:18;;;;;;;10.00;6.12;;;;;;;19.33;47.66;100464.63;1547638;93;21063;-64
2022/04/10 08:41:46;;;;;;;10.35;5.45;;;;;;;19.32;48.01;100473.48;1547269;93;21086;-64
2022/04/10 08:44:13;;;;;;;9.73;5.83;;;;;;;19.32;47.83;100460.28;1547523;93;21131;-64
2022/04/10 08:46:40;;;;;;;15.25;6.15;;;;;;;19.32;47.77;100455.01;1547409;93;21123;-63
2022/04/10 08:49:06;;;;;;;13.53;6.10;;;;;;;19.30;47.67;100454.25;1547761;93;21594;-63
2022/04/10 08:51:35;;;;;;;11.30;6.25;;;;;;;19.26;47.37;100452.75;1547447;93;21083;-64
2022/04/10 08:54:02;;;;;;;13.72;6.30;;;;;;;19.18;47.66;100444.47;1547639;93;21071;-63
2022/04/10 08:56:29;;;;;;;13.55;6.42;;;;;;;19.12;47.87;100444.84;1527982;93;21071;-63
2022/04/10 08:58:56;;;;;;;14.78;6.72;;;;;;;19.09;48.20;100450.30;1541247;93;21176;-64
2022/04/10 09:01:24;;;;;;;16.85;6.60;;;;;;;19.11;48.13;100448.41;1536106;93;21162;-64
2022/04/10 09:03:51;;;;;;;14.58;7.25;;;;;;;19.13;48.02;100443.89;1616943;86;21001;-63
2022/04/10 09:06:18;;;;;;;16.93;6.55;;;;;;;19.16;48.17;100445.03;1675867;85;21077;-64
2022/04/10 09:08:46;;;;;;;12.80;6.70;;;;;;;19.18;48.11;100433.92;1675973;86;21042;-64
2022/04/10 09:11:13;;;;;;;12.68;6.00;;;;;;;19.19;48.02;100443.51;1676149;86;21505;-64
2022/04/10 09:13:49;;;;;;;16.00;7.05;;;;;;;19.20;47.61;100447.86;1675744;85;21021;-63
2022/04/10 09:16:22;;;;;;;12.85;6.47;;;;;;;19.15;47.67;100449.92;1675857;86;21478;-64
2022/04/10 09:19:08;;;;;;;15.45;7.00;;;;;;;19.13;47.93;100438.61;1620054;88;21036;-64
2022/04/10 09:21:36;;;;;;;16.02;6.40;;;;;;;19.16;47.84;100437.13;1620414;88;21072;-65
2022/04/10 09:24:11;;;;;;;18.05;6.22;;;;;;;19.20;48.04;100437.31;1620382;88;21072;-64
2022/04/10 09:26:57;;;;;;;13.32;6.25;;;;;;;19.23;47.69;100433.61;1620725;88;21059;-64
2022/04/10 09:29:24;;;;;;;16.50;7.25;;;;;;;19.24;47.67;100432.68;1617479;88;22259;-64
2022/04/10 09:31:54;;;;;;;13.75;6.12;;;;;;;19.25;47.79;100422.02;1620217;88;21117;-64
2022/04/10 09:34:22;;;;;;;9.25;5.62;;;;;;;19.26;47.78;100425.05;1620182;88;21064;-64
2022/04/10 09:37:03;;;;;;;14.90;6.30;;;;;;;19.30;47.49;100425.23;1620513;88;21632;-65
2022/04/10 09:39:38;;;;;;;14.60;6.15;;;;;;;19.32;47.32;100423.34;1618427;88;21064;-66
2022/04/10 09:42:10;;;;;;;13.70;5.55;;;;;;;19.29;47.23;100416.08;1619243;88;21552;-65
2022/04/10 09:44:38;;;;;;;11.12;6.42;;;;;;;19.22;47.37;100415.64;1570739;91;21513;-64
2022/04/10 09:47:10;;;;;;;14.75;5.80;;;;;;;19.17;47.45;100422.98;1570388;91;21058;-64
2022/04/10 09:49:40;;;;;;;13.70;5.60;;;;;;;19.13;47.36;100412.24;1570724;91;21062;-64
2022/04/10 09:52:11;;;;;;;13.53;6.28;;;;;;;19.09;47.51;100413.37;1570934;91;21280;-65
2022/04/10 09:54:46;;;;;;;13.08;5.28;;;;;;;19.08;47.27;100413.48;1570317;91;21043;-65
2022/04/10 09:57:20;;;;;;;15.53;6.10;;;;;;;19.04;47.32;100407.52;1570906;91;21038;-65
2022/04/10 09:59:50;;;;;;;11.78;5.22;;;;;;;18.97;47.31;100408.86;1570233;91;21106;-64
2022/04/10 10:02:21;;;;;;;14.40;5.15;;;;;;;18.95;47.34;100409.43;1570440;91;21074;-64
2022/04/10 10:04:50;;;;;;;12.18;4.72;;;;;;;18.96;47.42;100405.84;1570731;91;21070;-64
2022/04/10 10:07:19;;;;;;;13.80;5.15;;;;;;;18.96;47.49;100406.33;1570684;91;21587;-64
2022/04/10 10:09:48;;;;;;;13.03;5.07;;;;;;;18.97;47.81;100415.92;1571214;91;21129;-65
2022/04/10 10:12:17;;;;;;;13.48;5.55;;;;;;;19.01;47.68;100419.59;1570661;91;21042;-64
2022/04/10 10:14:45;;;;;;;9.85;4.65;;;;;;;19.07;47.43;100422.31;1577341;88;21067;-64
2022/04/10 10:17:14;;;;;;;9.33;4.75;;;;;;;19.12;47.43;100418.48;1617486;89;21067;-64
2022/04/10 10:19:43;;;;;;;12.10;4.78;;;;;;;19.16;47.18;100424.40;1617864;89;21112;-63
2022/04/10 10:22:13;;;;;;;12.00;4.95;;;;;;;19.18;47.12;100429.11;1617556;89;21064;-64
2022/04/10 10:24:50;;;;;;;8.65;4.45;;;;;;;19.22;47.14;100427.97;1617684;89;21646;-61
2022/04/10 10:27:34;;;;;;;13.38;5.42;;;;;;;19.25;46.93;100419.39;1617727;89;21107;-63
2022/04/10 10:30:26;;;;;;;11.03;4.90;;;;;;;19.28;46.67;100423.17;1615346;89;21070;-63
2022/04/10 10:32:56;;;;;;;9.53;4.83;;;;;;;19.30;46.74;100425.70;1617789;88;21115;-65
2022/04/10 10:35:34;;;;;;;9.40;4.65;;;;;;;19.32;46.48;100422.03;1617919;89;21592;-65
2022/04/10 10:38:01;;;;;;;12.82;4.70;;;;;;;19.33;46.43;100422.42;1617405;89;21085;-64
2022/04/10 10:40:28;;;;;;;10.48;4.60;;;;;;;19.31;46.36;100426.06;1621008;86;21135;-62
2022/04/10 10:42:59;;;;;;;11.63;5.10;;;;;;;19.29;46.25;100430.59;1673657;86;21071;-62
2022/04/10 10:45:41;;;;;;;13.80;4.97;;;;;;;19.25;46.40;100425.98;1673558;86;21488;-62
2022/04/10 10:48:34;;;;;;;12.37;4.42;;;;;;;19.23;46.35;100417.31;1673554;85;21000;-65
2022/04/10 10:51:18;;;;;;;8.73;5.20;;;;;;;19.19;46.20;100414.50;1663793;86;21071;-64
2022/04/10 10:54:00;;;;;;;9.45;4.70;;;;;;;19.14;46.33;100410.45;1664378;86;21099;-64
2022/04/10 10:56:31;;;;;;;8.57;3.90;;;;;;;19.10;46.21;100407.64;1664771;86;21535;-64
2022/04/10 10:59:26;;;;;;;8.40;4.42;;;;;;;19.07;46.19;100402.08;1674370;85;21083;-64
2022/04/10 11:02:12;;;;;;;8.68;3.98;;;;;;;19.01;46.34;100402.92;1619113;87;21112;-64
2022/04/10 11:04:45;;;;;;;6.62;3.95;;;;;;;18.98;46.59;100407.08;1619246;87;21073;-65
2022/04/10 11:07:22;;;;;;;8.48;4.12;;;;;;;18.96;46.46;100411.61;1619395;89;21116;-63
2022/04/10 11:10:00;;;;;;;9.45;4.10;;;;;;;18.96;46.64;100412.42;1619285;87;21112;-64
2022/04/10 11:12:50;;;;;;;12.20;4.20;;;;;;;18.97;46.74;100418.09;1619241;87;21577;-63
2022/04/10 11:15:22;;;;;;;12.68;4.75;;;;;;;18.97;46.66;100411.50;1548739;92;21144;-64
2022/04/10 11:17:52;;;;;;;9.25;4.78;;;;;;;18.99;47.03;100404.81;1549054;93;21136;-65
2022/04/10 11:20:22;;;;;;;10.93;4.03;;;;;;;19.03;46.64;100402.36;1549063;92;21112;-64
2022/04/10 11:22:56;;;;;;;8.45;3.92;;;;;;;19.05;46.63;100409.23;1548997;93;21130;-64
2022/04/10 11:25:31;;;;;;;9.78;4.28;;;;;;;19.09;46.55;100401.97;1548965;93;21090;-64
2022/04/10 11:28:04;;;;;;;8.03;4.40;;;;;;;19.12;46.48;100399.16;1548930;91;21127;-64
2022/04/10 11:30:43;;;;;;;11.18;5.08;;;;;;;19.16;46.36;100394.06;1505372;95;21093;-64
2022/04/10 11:33:13;;;;;;;9.83;4.20;;;;;;;19.20;46.30;100399.06;1504095;95;21140;-65
2022/04/10 11:35:41;;;;;;;11.63;4.90;;;;;;;19.21;46.36;100396.78;1506263;95;21120;-64